sensor_id;sensor_type;location;lat;lon;timestamp;P1;durP1;ratioP1;P2;durP2;ratioP2
77430;SDS011;66498;48.564;19.272;2023-02-28T00:01:32;69.97;;;32.27;;
77430;SDS011;66498;48.564;19.272;2023-02-28T00:03:58;65.43;;;29.37;;
77430;SDS011;66498;48.564;19.272;2023-02-28T00:06:24;72.00;;;32.70;;
77430;SDS011;66498;48.564;19.272;2023-02-28T00:08:49;69.17;;;32.90;;
77430;SDS011;66498;48.564;19.272;2023-02-28T00:11:15;54.00;;;25.70;;
77430;SDS011;66498;48.564;19.272;2023-02-28T00:13:42;39.03;;;19.37;;
77430;SDS011;66498;48.564;19.272;2023-02-28T00:16:13;35.03;;;18.87;;
77430;SDS011;66498;48.564;19.272;2023-02-28T00:18:41;49.03;;;21.80;;
77430;SDS011;66498;48.564;19.272;2023-02-28T00:21:06;85.23;;;36.23;;
77430;SDS011;66498;48.564;19.272;2023-02-28T00:23:33;66.30;;;27.43;;
77430;SDS011;66498;48.564;19.272;2023-02-28T00:25:58;55.73;;;25.27;;
77430;SDS011;66498;48.564;19.272;2023-02-28T00:28:24;81.27;;;33.93;;
77430;SDS011;66498;48.564;19.272;2023-02-28T00:30:49;92.80;;;41.13;;
77430;SDS011;66498;48.564;19.272;2023-02-28T00:33:15;98.57;;;41.37;;
77430;SDS011;66498;48.564;19.272;2023-02-28T00:35:41;99.33;;;41.50;;
77430;SDS011;66498;48.564;19.272;2023-02-28T00:38:06;69.23;;;30.70;;
77430;SDS011;66498;48.564;19.272;2023-02-28T00:40:32;56.17;;;23.97;;
77430;SDS011;66498;48.564;19.272;2023-02-28T00:42:57;38.70;;;17.70;;
77430;SDS011;66498;48.564;19.272;2023-02-28T00:45:23;36.37;;;17.23;;
77430;SDS011;66498;48.564;19.272;2023-02-28T00:47:48;28.43;;;14.10;;
77430;SDS011;66498;48.564;19.272;2023-02-28T00:50:17;27.03;;;14.23;;
77430;SDS011;66498;48.564;19.272;2023-02-28T00:52:43;24.80;;;13.00;;
77430;SDS011;66498;48.564;19.272;2023-02-28T00:55:09;25.10;;;12.77;;
77430;SDS011;66498;48.564;19.272;2023-02-28T00:57:35;24.00;;;12.37;;
77430;SDS011;66498;48.564;19.272;2023-02-28T01:00:00;29.23;;;14.40;;
77430;SDS011;66498;48.564;19.272;2023-02-28T01:02:26;23.43;;;13.50;;
77430;SDS011;66498;48.564;19.272;2023-02-28T01:04:52;23.90;;;13.13;;
77430;SDS011;66498;48.564;19.272;2023-02-28T01:07:17;26.53;;;13.13;;
77430;SDS011;66498;48.564;19.272;2023-02-28T01:09:43;24.30;;;12.20;;
77430;SDS011;66498;48.564;19.272;2023-02-28T01:12:09;24.10;;;12.77;;
77430;SDS011;66498;48.564;19.272;2023-02-28T01:14:34;30.33;;;15.87;;
77430;SDS011;66498;48.564;19.272;2023-02-28T01:17:00;27.60;;;14.53;;
77430;SDS011;66498;48.564;19.272;2023-02-28T01:19:26;29.07;;;16.20;;
77430;SDS011;66498;48.564;19.272;2023-02-28T01:21:52;28.90;;;15.60;;
77430;SDS011;66498;48.564;19.272;2023-02-28T01:24:18;31.73;;;17.37;;
77430;SDS011;66498;48.564;19.272;2023-02-28T01:26:44;43.13;;;22.23;;
77430;SDS011;66498;48.564;19.272;2023-02-28T01:29:09;27.27;;;14.90;;
77430;SDS011;66498;48.564;19.272;2023-02-28T01:31:35;30.73;;;15.83;;
77430;SDS011;66498;48.564;19.272;2023-02-28T01:34:01;30.40;;;15.30;;
77430;SDS011;66498;48.564;19.272;2023-02-28T01:36:26;30.30;;;15.93;;
77430;SDS011;66498;48.564;19.272;2023-02-28T01:38:53;28.07;;;15.53;;
77430;SDS011;66498;48.564;19.272;2023-02-28T01:41:21;30.73;;;15.90;;
77430;SDS011;66498;48.564;19.272;2023-02-28T01:46:13;29.10;;;15.83;;
77430;SDS011;66498;48.564;19.272;2023-02-28T01:48:42;29.00;;;16.23;;
77430;SDS011;66498;48.564;19.272;2023-02-28T01:51:15;32.27;;;17.30;;
77430;SDS011;66498;48.564;19.272;2023-02-28T01:53:53;28.13;;;14.93;;
77430;SDS011;66498;48.564;19.272;2023-02-28T01:56:24;32.60;;;16.43;;
77430;SDS011;66498;48.564;19.272;2023-02-28T01:58:54;32.10;;;15.97;;
77430;SDS011;66498;48.564;19.272;2023-02-28T02:01:21;28.43;;;14.30;;
77430;SDS011;66498;48.564;19.272;2023-02-28T02:03:51;28.47;;;14.93;;
77430;SDS011;66498;48.564;19.272;2023-02-28T02:06:22;26.48;;;15.38;;
77430;SDS011;66498;48.564;19.272;2023-02-28T02:08:51;29.13;;;15.77;;
77430;SDS011;66498;48.564;19.272;2023-02-28T02:11:17;28.77;;;15.00;;
77430;SDS011;66498;48.564;19.272;2023-02-28T02:25:33;27.53;;;13.87;;
77430;SDS011;66498;48.564;19.272;2023-02-28T02:30:44;26.58;;;14.15;;
77430;SDS011;66498;48.564;19.272;2023-02-28T02:33:28;30.60;;;14.63;;
77430;SDS011;66498;48.564;19.272;2023-02-28T02:38:46;33.77;;;15.60;;
77430;SDS011;66498;48.564;19.272;2023-02-28T02:43:54;31.45;;;16.52;;
77430;SDS011;66498;48.564;19.272;2023-02-28T02:46:29;37.05;;;17.42;;
77430;SDS011;66498;48.564;19.272;2023-02-28T02:51:31;37.20;;;17.97;;
77430;SDS011;66498;48.564;19.272;2023-02-28T02:54:02;41.83;;;18.80;;
77430;SDS011;66498;48.564;19.272;2023-02-28T02:56:33;33.88;;;16.98;;
77430;SDS011;66498;48.564;19.272;2023-02-28T02:59:02;33.13;;;17.07;;
77430;SDS011;66498;48.564;19.272;2023-02-28T03:01:29;37.27;;;18.90;;
77430;SDS011;66498;48.564;19.272;2023-02-28T03:04:01;40.67;;;19.77;;
77430;SDS011;66498;48.564;19.272;2023-02-28T03:06:29;38.80;;;17.83;;
77430;SDS011;66498;48.564;19.272;2023-02-28T03:08:55;31.23;;;16.60;;
77430;SDS011;66498;48.564;19.272;2023-02-28T03:11:20;31.17;;;17.00;;
77430;SDS011;66498;48.564;19.272;2023-02-28T03:25:10;29.10;;;16.17;;
77430;SDS011;66498;48.564;19.272;2023-02-28T03:27:44;32.77;;;17.30;;
77430;SDS011;66498;48.564;19.272;2023-02-28T03:33:25;84.97;;;35.97;;
77430;SDS011;66498;48.564;19.272;2023-02-28T03:35:59;99.15;;;41.67;;
77430;SDS011;66498;48.564;19.272;2023-02-28T03:41:00;71.60;;;32.53;;
77430;SDS011;66498;48.564;19.272;2023-02-28T03:43:31;54.10;;;26.77;;
77430;SDS011;66498;48.564;19.272;2023-02-28T03:46:02;51.67;;;25.50;;
77430;SDS011;66498;48.564;19.272;2023-02-28T03:48:38;90.83;;;34.53;;
77430;SDS011;66498;48.564;19.272;2023-02-28T03:51:05;98.37;;;36.40;;
77430;SDS011;66498;48.564;19.272;2023-02-28T03:53:35;97.20;;;36.23;;
77430;SDS011;66498;48.564;19.272;2023-02-28T03:58:43;71.30;;;29.53;;
77430;SDS011;66498;48.564;19.272;2023-02-28T04:01:38;52.05;;;23.25;;
77430;SDS011;66498;48.564;19.272;2023-02-28T04:04:06;42.63;;;20.13;;
77430;SDS011;66498;48.564;19.272;2023-02-28T04:06:35;37.00;;;17.80;;
77430;SDS011;66498;48.564;19.272;2023-02-28T04:09:02;32.77;;;17.43;;
77430;SDS011;66498;48.564;19.272;2023-02-28T04:11:42;35.83;;;17.67;;
77430;SDS011;66498;48.564;19.272;2023-02-28T04:14:10;34.17;;;17.40;;
77430;SDS011;66498;48.564;19.272;2023-02-28T04:16:37;34.27;;;18.97;;
77430;SDS011;66498;48.564;19.272;2023-02-28T04:19:06;36.13;;;19.93;;
77430;SDS011;66498;48.564;19.272;2023-02-28T04:21:33;35.50;;;19.37;;
77430;SDS011;66498;48.564;19.272;2023-02-28T04:24:06;36.43;;;18.93;;
77430;SDS011;66498;48.564;19.272;2023-02-28T04:26:34;36.83;;;18.80;;
77430;SDS011;66498;48.564;19.272;2023-02-28T04:29:01;42.13;;;20.30;;
77430;SDS011;66498;48.564;19.272;2023-02-28T04:31:29;41.03;;;21.23;;
77430;SDS011;66498;48.564;19.272;2023-02-28T04:33:54;38.60;;;20.37;;
77430;SDS011;66498;48.564;19.272;2023-02-28T04:36:20;32.43;;;17.30;;
77430;SDS011;66498;48.564;19.272;2023-02-28T04:38:47;28.63;;;14.60;;
77430;SDS011;66498;48.564;19.272;2023-02-28T04:41:13;24.37;;;13.80;;
77430;SDS011;66498;48.564;19.272;2023-02-28T04:43:38;26.93;;;14.80;;
77430;SDS011;66498;48.564;19.272;2023-02-28T04:46:04;25.07;;;13.93;;
77430;SDS011;66498;48.564;19.272;2023-02-28T04:48:31;25.77;;;14.90;;
77430;SDS011;66498;48.564;19.272;2023-02-28T04:51:17;25.13;;;14.33;;
77430;SDS011;66498;48.564;19.272;2023-02-28T04:53:43;39.13;;;19.97;;
77430;SDS011;66498;48.564;19.272;2023-02-28T04:56:12;32.07;;;16.83;;
77430;SDS011;66498;48.564;19.272;2023-02-28T04:58:40;32.33;;;16.73;;
77430;SDS011;66498;48.564;19.272;2023-02-28T05:01:27;33.07;;;15.73;;
77430;SDS011;66498;48.564;19.272;2023-02-28T05:03:54;28.67;;;15.17;;
77430;SDS011;66498;48.564;19.272;2023-02-28T05:06:22;30.07;;;15.13;;
77430;SDS011;66498;48.564;19.272;2023-02-28T05:08:49;27.50;;;15.17;;
77430;SDS011;66498;48.564;19.272;2023-02-28T05:11:19;26.90;;;14.87;;
77430;SDS011;66498;48.564;19.272;2023-02-28T05:13:59;28.97;;;14.77;;
77430;SDS011;66498;48.564;19.272;2023-02-28T05:16:34;29.63;;;14.93;;
77430;SDS011;66498;48.564;19.272;2023-02-28T05:19:00;28.13;;;14.03;;
77430;SDS011;66498;48.564;19.272;2023-02-28T05:21:29;28.60;;;14.93;;
77430;SDS011;66498;48.564;19.272;2023-02-28T05:23:58;23.73;;;13.40;;
77430;SDS011;66498;48.564;19.272;2023-02-28T05:26:25;26.87;;;14.07;;
77430;SDS011;66498;48.564;19.272;2023-02-28T05:28:51;26.37;;;13.47;;
77430;SDS011;66498;48.564;19.272;2023-02-28T05:31:17;25.10;;;12.90;;
77430;SDS011;66498;48.564;19.272;2023-02-28T05:33:43;25.03;;;13.53;;
77430;SDS011;66498;48.564;19.272;2023-02-28T05:36:08;24.07;;;13.43;;
77430;SDS011;66498;48.564;19.272;2023-02-28T05:38:34;24.63;;;13.27;;
77430;SDS011;66498;48.564;19.272;2023-02-28T05:40:59;28.53;;;13.97;;
77430;SDS011;66498;48.564;19.272;2023-02-28T05:43:25;30.37;;;14.23;;
77430;SDS011;66498;48.564;19.272;2023-02-28T05:45:50;32.13;;;16.67;;
77430;SDS011;66498;48.564;19.272;2023-02-28T05:48:16;31.63;;;16.20;;
77430;SDS011;66498;48.564;19.272;2023-02-28T05:50:43;28.27;;;15.03;;
77430;SDS011;66498;48.564;19.272;2023-02-28T05:53:10;31.77;;;16.17;;
77430;SDS011;66498;48.564;19.272;2023-02-28T05:55:36;29.17;;;15.77;;
77430;SDS011;66498;48.564;19.272;2023-02-28T05:58:02;32.77;;;17.63;;
77430;SDS011;66498;48.564;19.272;2023-02-28T06:00:28;135.27;;;49.93;;
77430;SDS011;66498;48.564;19.272;2023-02-28T06:02:53;121.93;;;44.83;;
77430;SDS011;66498;48.564;19.272;2023-02-28T06:05:21;56.00;;;25.10;;
77430;SDS011;66498;48.564;19.272;2023-02-28T06:07:47;49.87;;;22.17;;
77430;SDS011;66498;48.564;19.272;2023-02-28T06:10:13;42.43;;;20.30;;
77430;SDS011;66498;48.564;19.272;2023-02-28T06:12:39;35.77;;;17.93;;
77430;SDS011;66498;48.564;19.272;2023-02-28T06:15:06;36.53;;;18.67;;
77430;SDS011;66498;48.564;19.272;2023-02-28T06:17:34;31.33;;;17.27;;
77430;SDS011;66498;48.564;19.272;2023-02-28T06:19:59;33.93;;;17.70;;
77430;SDS011;66498;48.564;19.272;2023-02-28T06:22:25;29.13;;;15.87;;
77430;SDS011;66498;48.564;19.272;2023-02-28T06:24:50;26.80;;;15.37;;
77430;SDS011;66498;48.564;19.272;2023-02-28T06:27:17;25.97;;;15.03;;
77430;SDS011;66498;48.564;19.272;2023-02-28T06:29:44;25.57;;;13.90;;
77430;SDS011;66498;48.564;19.272;2023-02-28T06:32:09;28.90;;;14.67;;
77430;SDS011;66498;48.564;19.272;2023-02-28T06:34:35;26.00;;;14.47;;
77430;SDS011;66498;48.564;19.272;2023-02-28T06:37:00;24.03;;;13.47;;
77430;SDS011;66498;48.564;19.272;2023-02-28T06:39:27;29.57;;;13.70;;
77430;SDS011;66498;48.564;19.272;2023-02-28T06:41:53;27.23;;;14.43;;
77430;SDS011;66498;48.564;19.272;2023-02-28T06:44:19;26.50;;;14.33;;
77430;SDS011;66498;48.564;19.272;2023-02-28T06:46:45;25.73;;;14.47;;
77430;SDS011;66498;48.564;19.272;2023-02-28T06:49:11;28.43;;;14.77;;
77430;SDS011;66498;48.564;19.272;2023-02-28T06:51:37;27.33;;;15.80;;
77430;SDS011;66498;48.564;19.272;2023-02-28T06:54:05;28.33;;;15.27;;
77430;SDS011;66498;48.564;19.272;2023-02-28T06:56:34;34.37;;;16.17;;
77430;SDS011;66498;48.564;19.272;2023-02-28T06:59:00;31.57;;;15.77;;
77430;SDS011;66498;48.564;19.272;2023-02-28T07:01:26;31.33;;;14.80;;
77430;SDS011;66498;48.564;19.272;2023-02-28T07:03:53;28.97;;;15.53;;
77430;SDS011;66498;48.564;19.272;2023-02-28T07:06:20;31.20;;;15.13;;
77430;SDS011;66498;48.564;19.272;2023-02-28T07:08:49;28.37;;;15.07;;
77430;SDS011;66498;48.564;19.272;2023-02-28T07:11:15;32.43;;;16.13;;
77430;SDS011;66498;48.564;19.272;2023-02-28T07:13:41;35.87;;;18.00;;
77430;SDS011;66498;48.564;19.272;2023-02-28T07:16:07;30.33;;;16.63;;
77430;SDS011;66498;48.564;19.272;2023-02-28T07:18:35;29.87;;;16.30;;
77430;SDS011;66498;48.564;19.272;2023-02-28T07:21:02;30.70;;;16.60;;
77430;SDS011;66498;48.564;19.272;2023-02-28T07:23:29;30.77;;;16.17;;
77430;SDS011;66498;48.564;19.272;2023-02-28T07:25:54;30.15;;;17.00;;
77430;SDS011;66498;48.564;19.272;2023-02-28T07:28:20;32.23;;;16.63;;
77430;SDS011;66498;48.564;19.272;2023-02-28T07:30:45;33.72;;;17.20;;
77430;SDS011;66498;48.564;19.272;2023-02-28T07:33:11;29.80;;;16.30;;
77430;SDS011;66498;48.564;19.272;2023-02-28T07:35:36;31.52;;;17.15;;
77430;SDS011;66498;48.564;19.272;2023-02-28T07:38:02;32.40;;;16.60;;
77430;SDS011;66498;48.564;19.272;2023-02-28T07:40:28;34.97;;;17.52;;
77430;SDS011;66498;48.564;19.272;2023-02-28T07:42:54;32.80;;;16.83;;
77430;SDS011;66498;48.564;19.272;2023-02-28T07:45:19;31.45;;;17.23;;
77430;SDS011;66498;48.564;19.272;2023-02-28T07:47:45;30.67;;;16.83;;
77430;SDS011;66498;48.564;19.272;2023-02-28T07:50:12;32.80;;;17.63;;
77430;SDS011;66498;48.564;19.272;2023-02-28T07:52:39;32.10;;;17.75;;
77430;SDS011;66498;48.564;19.272;2023-02-28T07:55:05;30.02;;;16.60;;
77430;SDS011;66498;48.564;19.272;2023-02-28T07:57:32;28.75;;;16.23;;
77430;SDS011;66498;48.564;19.272;2023-02-28T07:59:58;31.92;;;16.48;;
77430;SDS011;66498;48.564;19.272;2023-02-28T08:02:23;31.05;;;17.45;;
77430;SDS011;66498;48.564;19.272;2023-02-28T08:04:49;31.30;;;15.77;;
77430;SDS011;66498;48.564;19.272;2023-02-28T08:07:15;24.75;;;14.18;;
77430;SDS011;66498;48.564;19.272;2023-02-28T08:09:42;23.85;;;13.75;;
77430;SDS011;66498;48.564;19.272;2023-02-28T08:12:08;27.50;;;14.10;;
77430;SDS011;66498;48.564;19.272;2023-02-28T08:14:35;24.42;;;12.98;;
77430;SDS011;66498;48.564;19.272;2023-02-28T08:17:01;27.92;;;12.35;;
77430;SDS011;66498;48.564;19.272;2023-02-28T08:19:27;22.30;;;12.85;;
77430;SDS011;66498;48.564;19.272;2023-02-28T08:21:56;26.65;;;13.73;;
77430;SDS011;66498;48.564;19.272;2023-02-28T08:24:22;25.80;;;13.80;;
77430;SDS011;66498;48.564;19.272;2023-02-28T08:26:48;21.80;;;12.10;;
77430;SDS011;66498;48.564;19.272;2023-02-28T08:29:13;24.33;;;13.95;;
77430;SDS011;66498;48.564;19.272;2023-02-28T08:31:39;25.67;;;13.57;;
77430;SDS011;66498;48.564;19.272;2023-02-28T08:34:07;28.88;;;14.77;;
77430;SDS011;66498;48.564;19.272;2023-02-28T08:36:33;26.10;;;14.85;;
77430;SDS011;66498;48.564;19.272;2023-02-28T08:38:59;23.42;;;12.63;;
77430;SDS011;66498;48.564;19.272;2023-02-28T08:41:25;24.98;;;12.70;;
77430;SDS011;66498;48.564;19.272;2023-02-28T08:43:51;25.20;;;13.02;;
77430;SDS011;66498;48.564;19.272;2023-02-28T08:46:17;24.88;;;13.18;;
77430;SDS011;66498;48.564;19.272;2023-02-28T08:48:42;22.08;;;12.68;;
77430;SDS011;66498;48.564;19.272;2023-02-28T08:51:10;21.42;;;12.23;;
77430;SDS011;66498;48.564;19.272;2023-02-28T08:53:38;22.10;;;12.23;;
77430;SDS011;66498;48.564;19.272;2023-02-28T08:56:06;20.50;;;11.52;;
77430;SDS011;66498;48.564;19.272;2023-02-28T08:58:37;21.13;;;11.32;;
77430;SDS011;66498;48.564;19.272;2023-02-28T09:01:10;19.42;;;11.32;;
77430;SDS011;66498;48.564;19.272;2023-02-28T09:03:40;30.02;;;13.02;;
77430;SDS011;66498;48.564;19.272;2023-02-28T09:06:07;24.45;;;13.27;;
77430;SDS011;66498;48.564;19.272;2023-02-28T09:08:33;31.58;;;13.85;;
77430;SDS011;66498;48.564;19.272;2023-02-28T09:10:58;26.40;;;13.73;;
77430;SDS011;66498;48.564;19.272;2023-02-28T09:13:25;25.95;;;13.88;;
77430;SDS011;66498;48.564;19.272;2023-02-28T09:15:51;24.45;;;12.57;;
77430;SDS011;66498;48.564;19.272;2023-02-28T09:18:17;21.55;;;12.32;;
77430;SDS011;66498;48.564;19.272;2023-02-28T09:20:43;14.35;;;9.38;;
77430;SDS011;66498;48.564;19.272;2023-02-28T09:23:10;16.30;;;9.80;;
77430;SDS011;66498;48.564;19.272;2023-02-28T09:25:37;14.85;;;7.47;;
77430;SDS011;66498;48.564;19.272;2023-02-28T09:28:03;15.05;;;8.75;;
77430;SDS011;66498;48.564;19.272;2023-02-28T09:30:29;14.35;;;8.02;;
77430;SDS011;66498;48.564;19.272;2023-02-28T09:32:55;14.02;;;8.23;;
77430;SDS011;66498;48.564;19.272;2023-02-28T09:35:22;14.75;;;8.23;;
77430;SDS011;66498;48.564;19.272;2023-02-28T09:37:52;15.13;;;8.95;;
77430;SDS011;66498;48.564;19.272;2023-02-28T09:40:18;12.52;;;7.88;;
77430;SDS011;66498;48.564;19.272;2023-02-28T09:42:46;11.88;;;7.70;;
77430;SDS011;66498;48.564;19.272;2023-02-28T09:45:28;11.65;;;8.18;;
77430;SDS011;66498;48.564;19.272;2023-02-28T09:48:20;14.15;;;8.57;;
77430;SDS011;66498;48.564;19.272;2023-02-28T09:51:00;14.38;;;8.65;;
77430;SDS011;66498;48.564;19.272;2023-02-28T09:53:30;15.05;;;8.27;;
77430;SDS011;66498;48.564;19.272;2023-02-28T09:56:14;15.02;;;9.80;;
77430;SDS011;66498;48.564;19.272;2023-02-28T10:05:05;16.85;;;10.02;;
77430;SDS011;66498;48.564;19.272;2023-02-28T10:07:45;13.40;;;8.80;;
77430;SDS011;66498;48.564;19.272;2023-02-28T10:10:22;16.33;;;10.02;;
77430;SDS011;66498;48.564;19.272;2023-02-28T10:12:55;15.93;;;9.82;;
77430;SDS011;66498;48.564;19.272;2023-02-28T10:15:24;14.82;;;9.07;;
77430;SDS011;66498;48.564;19.272;2023-02-28T10:18:00;15.15;;;9.13;;
77430;SDS011;66498;48.564;19.272;2023-02-28T10:20:31;12.95;;;6.32;;
77430;SDS011;66498;48.564;19.272;2023-02-28T10:23:43;13.20;;;7.45;;
77430;SDS011;66498;48.564;19.272;2023-02-28T10:25:55;14.27;;;8.95;;
77430;SDS011;66498;48.564;19.272;2023-02-28T10:28:24;12.95;;;7.80;;
77430;SDS011;66498;48.564;19.272;2023-02-28T10:30:53;23.83;;;7.05;;
77430;SDS011;66498;48.564;19.272;2023-02-28T10:33:28;9.60;;;6.28;;
77430;SDS011;66498;48.564;19.272;2023-02-28T10:36:02;10.40;;;6.72;;
77430;SDS011;66498;48.564;19.272;2023-02-28T10:38:37;11.77;;;7.78;;
77430;SDS011;66498;48.564;19.272;2023-02-28T10:41:08;13.38;;;8.07;;
77430;SDS011;66498;48.564;19.272;2023-02-28T10:43:39;12.23;;;7.35;;
77430;SDS011;66498;48.564;19.272;2023-02-28T10:51:10;20.60;;;15.77;;
77430;SDS011;66498;48.564;19.272;2023-02-28T10:53:38;16.77;;;9.60;;
77430;SDS011;66498;48.564;19.272;2023-02-28T11:03:55;9.55;;;6.50;;
77430;SDS011;66498;48.564;19.272;2023-02-28T11:06:23;9.88;;;6.07;;
77430;SDS011;66498;48.564;19.272;2023-02-28T11:08:52;8.75;;;5.57;;
77430;SDS011;66498;48.564;19.272;2023-02-28T11:11:21;8.10;;;5.32;;
77430;SDS011;66498;48.564;19.272;2023-02-28T11:13:50;7.68;;;4.88;;
77430;SDS011;66498;48.564;19.272;2023-02-28T11:16:18;10.60;;;5.55;;
77430;SDS011;66498;48.564;19.272;2023-02-28T11:21:15;9.00;;;5.95;;
77430;SDS011;66498;48.564;19.272;2023-02-28T11:23:45;12.23;;;6.40;;
77430;SDS011;66498;48.564;19.272;2023-02-28T11:26:12;9.70;;;5.78;;
77430;SDS011;66498;48.564;19.272;2023-02-28T11:28:39;10.93;;;5.72;;
77430;SDS011;66498;48.564;19.272;2023-02-28T11:36:14;12.15;;;5.70;;
77430;SDS011;66498;48.564;19.272;2023-02-28T11:38:44;10.80;;;6.10;;
77430;SDS011;66498;48.564;19.272;2023-02-28T11:52:06;11.15;;;5.97;;
77430;SDS011;66498;48.564;19.272;2023-02-28T12:00:26;10.88;;;6.78;;
77430;SDS011;66498;48.564;19.272;2023-02-28T12:12:06;10.98;;;7.97;;
77430;SDS011;66498;48.564;19.272;2023-02-28T12:17:19;16.25;;;10.77;;
77430;SDS011;66498;48.564;19.272;2023-02-28T12:19:57;13.10;;;10.68;;
77430;SDS011;66498;48.564;19.272;2023-02-28T12:23:14;15.20;;;6.70;;
77430;SDS011;66498;48.564;19.272;2023-02-28T12:25:50;18.63;;;13.65;;
77430;SDS011;66498;48.564;19.272;2023-02-28T12:28:36;9.02;;;6.60;;
77430;SDS011;66498;48.564;19.272;2023-02-28T12:31:11;13.02;;;6.15;;
77430;SDS011;66498;48.564;19.272;2023-02-28T12:33:45;8.20;;;5.22;;
77430;SDS011;66498;48.564;19.272;2023-02-28T12:36:16;9.52;;;5.38;;
77430;SDS011;66498;48.564;19.272;2023-02-28T12:38:56;8.77;;;5.88;;
77430;SDS011;66498;48.564;19.272;2023-02-28T12:41:48;8.35;;;5.30;;
77430;SDS011;66498;48.564;19.272;2023-02-28T12:47:15;15.05;;;6.97;;
77430;SDS011;66498;48.564;19.272;2023-02-28T12:49:45;9.43;;;5.80;;
77430;SDS011;66498;48.564;19.272;2023-02-28T12:52:17;11.23;;;8.02;;
77430;SDS011;66498;48.564;19.272;2023-02-28T12:57:57;9.73;;;5.63;;
77430;SDS011;66498;48.564;19.272;2023-02-28T13:00:33;8.25;;;5.38;;
77430;SDS011;66498;48.564;19.272;2023-02-28T13:03:27;8.38;;;5.32;;
77430;SDS011;66498;48.564;19.272;2023-02-28T13:06:04;10.05;;;6.20;;
77430;SDS011;66498;48.564;19.272;2023-02-28T13:08:51;8.60;;;6.00;;
77430;SDS011;66498;48.564;19.272;2023-02-28T13:11:47;6.35;;;4.88;;
77430;SDS011;66498;48.564;19.272;2023-02-28T13:19:33;7.22;;;4.60;;
77430;SDS011;66498;48.564;19.272;2023-02-28T13:22:01;7.43;;;4.72;;
77430;SDS011;66498;48.564;19.272;2023-02-28T13:24:47;6.70;;;4.78;;
77430;SDS011;66498;48.564;19.272;2023-02-28T13:27:24;6.63;;;4.80;;
77430;SDS011;66498;48.564;19.272;2023-02-28T13:29:57;11.25;;;5.75;;
77430;SDS011;66498;48.564;19.272;2023-02-28T13:32:33;7.20;;;4.90;;
77430;SDS011;66498;48.564;19.272;2023-02-28T13:37:35;9.85;;;5.20;;
77430;SDS011;66498;48.564;19.272;2023-02-28T13:42:51;9.52;;;5.20;;
77430;SDS011;66498;48.564;19.272;2023-02-28T13:47:53;7.97;;;5.55;;
77430;SDS011;66498;48.564;19.272;2023-02-28T13:52:57;6.82;;;4.93;;
77430;SDS011;66498;48.564;19.272;2023-02-28T14:01:29;16.98;;;12.32;;
77430;SDS011;66498;48.564;19.272;2023-02-28T14:04:33;6.75;;;4.70;;
77430;SDS011;66498;48.564;19.272;2023-02-28T14:07:08;8.73;;;6.22;;
77430;SDS011;66498;48.564;19.272;2023-02-28T14:09:44;15.32;;;6.72;;
77430;SDS011;66498;48.564;19.272;2023-02-28T14:15:00;15.35;;;9.45;;
77430;SDS011;66498;48.564;19.272;2023-02-28T14:17:26;12.48;;;8.40;;
77430;SDS011;66498;48.564;19.272;2023-02-28T14:19:51;14.23;;;9.95;;
77430;SDS011;66498;48.564;19.272;2023-02-28T14:30:29;8.90;;;6.20;;
77430;SDS011;66498;48.564;19.272;2023-02-28T14:38:59;9.00;;;4.60;;
77430;SDS011;66498;48.564;19.272;2023-02-28T14:41:31;6.43;;;4.35;;
77430;SDS011;66498;48.564;19.272;2023-02-28T14:44:25;8.13;;;4.57;;
77430;SDS011;66498;48.564;19.272;2023-02-28T14:46:53;8.27;;;5.50;;
77430;SDS011;66498;48.564;19.272;2023-02-28T14:55:19;6.78;;;4.32;;
77430;SDS011;66498;48.564;19.272;2023-02-28T14:57:55;6.25;;;4.10;;
77430;SDS011;66498;48.564;19.272;2023-02-28T15:00:32;6.85;;;4.13;;
77430;SDS011;66498;48.564;19.272;2023-02-28T15:02:59;6.32;;;4.20;;
77430;SDS011;66498;48.564;19.272;2023-02-28T15:13:20;6.78;;;4.75;;
77430;SDS011;66498;48.564;19.272;2023-02-28T15:21:06;6.47;;;4.35;;
77430;SDS011;66498;48.564;19.272;2023-02-28T15:23:43;6.13;;;4.07;;
77430;SDS011;66498;48.564;19.272;2023-02-28T15:26:16;6.65;;;4.45;;
77430;SDS011;66498;48.564;19.272;2023-02-28T15:28:49;7.00;;;4.05;;
77430;SDS011;66498;48.564;19.272;2023-02-28T15:31:28;6.30;;;4.22;;
77430;SDS011;66498;48.564;19.272;2023-02-28T15:33:58;6.07;;;4.13;;
77430;SDS011;66498;48.564;19.272;2023-02-28T15:36:30;6.45;;;4.32;;
77430;SDS011;66498;48.564;19.272;2023-02-28T15:38:58;7.47;;;4.57;;
77430;SDS011;66498;48.564;19.272;2023-02-28T15:41:26;5.53;;;4.20;;
77430;SDS011;66498;48.564;19.272;2023-02-28T15:47:00;53.03;;;29.45;;
77430;SDS011;66498;48.564;19.272;2023-02-28T15:49:26;126.95;;;50.65;;
77430;SDS011;66498;48.564;19.272;2023-02-28T15:51:54;15.27;;;9.95;;
77430;SDS011;66498;48.564;19.272;2023-02-28T15:54:23;24.48;;;17.75;;
77430;SDS011;66498;48.564;19.272;2023-02-28T15:56:53;12.38;;;7.65;;
77430;SDS011;66498;48.564;19.272;2023-02-28T15:59:22;15.70;;;9.23;;
77430;SDS011;66498;48.564;19.272;2023-02-28T16:07:23;12.48;;;6.05;;
77430;SDS011;66498;48.564;19.272;2023-02-28T16:09:49;13.10;;;7.95;;
77430;SDS011;66498;48.564;19.272;2023-02-28T16:12:15;17.52;;;9.75;;
77430;SDS011;66498;48.564;19.272;2023-02-28T16:14:41;12.93;;;6.80;;
77430;SDS011;66498;48.564;19.272;2023-02-28T16:17:12;14.05;;;8.10;;
77430;SDS011;66498;48.564;19.272;2023-02-28T16:19:46;30.38;;;15.35;;
77430;SDS011;66498;48.564;19.272;2023-02-28T16:22:11;10.93;;;7.35;;
77430;SDS011;66498;48.564;19.272;2023-02-28T16:24:37;9.20;;;6.03;;
77430;SDS011;66498;48.564;19.272;2023-02-28T16:27:03;9.65;;;5.28;;
77430;SDS011;66498;48.564;19.272;2023-02-28T16:29:32;6.93;;;4.90;;
77430;SDS011;66498;48.564;19.272;2023-02-28T16:32:01;7.60;;;5.20;;
77430;SDS011;66498;48.564;19.272;2023-02-28T16:34:30;8.27;;;5.07;;
77430;SDS011;66498;48.564;19.272;2023-02-28T16:36:55;11.23;;;6.13;;
77430;SDS011;66498;48.564;19.272;2023-02-28T16:39:21;11.20;;;5.70;;
77430;SDS011;66498;48.564;19.272;2023-02-28T16:41:47;9.45;;;5.85;;
77430;SDS011;66498;48.564;19.272;2023-02-28T16:44:26;7.85;;;5.47;;
77430;SDS011;66498;48.564;19.272;2023-02-28T16:46:53;10.57;;;6.30;;
77430;SDS011;66498;48.564;19.272;2023-02-28T16:49:18;10.48;;;6.90;;
77430;SDS011;66498;48.564;19.272;2023-02-28T16:51:44;12.70;;;7.85;;
77430;SDS011;66498;48.564;19.272;2023-02-28T16:54:09;15.95;;;8.80;;
77430;SDS011;66498;48.564;19.272;2023-02-28T16:56:35;13.60;;;7.60;;
77430;SDS011;66498;48.564;19.272;2023-02-28T16:59:04;12.23;;;7.63;;
77430;SDS011;66498;48.564;19.272;2023-02-28T17:01:30;12.75;;;7.82;;
77430;SDS011;66498;48.564;19.272;2023-02-28T17:03:55;22.35;;;11.05;;
77430;SDS011;66498;48.564;19.272;2023-02-28T17:06:22;21.23;;;12.25;;
77430;SDS011;66498;48.564;19.272;2023-02-28T17:08:50;17.98;;;12.77;;
77430;SDS011;66498;48.564;19.272;2023-02-28T17:11:16;28.08;;;18.80;;
77430;SDS011;66498;48.564;19.272;2023-02-28T17:13:43;28.25;;;19.00;;
77430;SDS011;66498;48.564;19.272;2023-02-28T17:16:30;20.38;;;15.38;;
77430;SDS011;66498;48.564;19.272;2023-02-28T17:19:00;14.15;;;9.05;;
77430;SDS011;66498;48.564;19.272;2023-02-28T17:21:28;10.95;;;7.15;;